sensor_id;sensor_type;location;lat;lon;timestamp;temperature;humidity
14614;DHT22;7393;51.446;6.800;2023-03-16T00:01:46;5.30;1.00
14614;DHT22;7393;51.446;6.800;2023-03-16T00:04:13;5.30;1.00
14614;DHT22;7393;51.446;6.800;2023-03-16T00:06:40;5.30;1.00
14614;DHT22;7393;51.446;6.800;2023-03-16T00:09:06;5.30;1.00
14614;DHT22;7393;51.446;6.800;2023-03-16T00:11:34;5.20;1.00
14614;DHT22;7393;51.446;6.800;2023-03-16T00:14:01;5.20;1.00
14614;DHT22;7393;51.446;6.800;2023-03-16T00:16:28;5.10;1.00
14614;DHT22;7393;51.446;6.800;2023-03-16T00:18:56;5.10;1.00
14614;DHT22;7393;51.446;6.800;2023-03-16T00:21:23;5.10;1.00
14614;DHT22;7393;51.446;6.800;2023-03-16T00:23:50;5.10;1.00
14614;DHT22;7393;51.446;6.800;2023-03-16T00:26:18;5.10;1.00
14614;DHT22;7393;51.446;6.800;2023-03-16T00:28:44;5.10;1.00
14614;DHT22;7393;51.446;6.800;2023-03-16T00:31:11;5.10;1.00
14614;DHT22;7393;51.446;6.800;2023-03-16T00:33:38;5.10;1.00
14614;DHT22;7393;51.446;6.800;2023-03-16T00:36:09;5.10;1.00
14614;DHT22;7393;51.446;6.800;2023-03-16T00:38:37;5.10;1.00
14614;DHT22;7393;51.446;6.800;2023-03-16T00:41:06;5.10;1.00
14614;DHT22;7393;51.446;6.800;2023-03-16T00:43:35;5.10;1.00
14614;DHT22;7393;51.446;6.800;2023-03-16T00:46:06;5.10;1.00
14614;DHT22;7393;51.446;6.800;2023-03-16T00:48:33;5.10;1.00
14614;DHT22;7393;51.446;6.800;2023-03-16T00:51:00;5.00;1.00
14614;DHT22;7393;51.446;6.800;2023-03-16T00:53:30;5.00;1.00
14614;DHT22;7393;51.446;6.800;2023-03-16T00:55:57;5.00;1.00
14614;DHT22;7393;51.446;6.800;2023-03-16T00:58:24;5.00;1.00
14614;DHT22;7393;51.446;6.800;2023-03-16T01:00:51;5.00;1.00
14614;DHT22;7393;51.446;6.800;2023-03-16T01:03:19;5.00;1.00
14614;DHT22;7393;51.446;6.800;2023-03-16T01:05:46;5.00;1.00
14614;DHT22;7393;51.446;6.800;2023-03-16T01:08:13;5.00;1.00
14614;DHT22;7393;51.446;6.800;2023-03-16T01:10:41;5.10;1.00
14614;DHT22;7393;51.446;6.800;2023-03-16T01:13:09;5.10;1.00
14614;DHT22;7393;51.446;6.800;2023-03-16T01:15:37;5.10;1.00
14614;DHT22;7393;51.446;6.800;2023-03-16T01:18:04;5.10;1.00
14614;DHT22;7393;51.446;6.800;2023-03-16T01:20:31;5.10;1.00
14614;DHT22;7393;51.446;6.800;2023-03-16T01:22:59;5.10;1.00
14614;DHT22;7393;51.446;6.800;2023-03-16T01:25:26;5.10;1.00
14614;DHT22;7393;51.446;6.800;2023-03-16T01:27:54;5.10;1.00
14614;DHT22;7393;51.446;6.800;2023-03-16T01:30:21;5.10;1.00
14614;DHT22;7393;51.446;6.800;2023-03-16T01:32:48;5.20;1.00
14614;DHT22;7393;51.446;6.800;2023-03-16T01:35:15;5.20;1.00
14614;DHT22;7393;51.446;6.800;2023-03-16T01:37:42;5.20;1.00
14614;DHT22;7393;51.446;6.800;2023-03-16T01:40:10;5.20;1.00
14614;DHT22;7393;51.446;6.800;2023-03-16T01:42:45;5.20;1.00
14614;DHT22;7393;51.446;6.800;2023-03-16T01:48:18;5.20;1.00
14614;DHT22;7393;51.446;6.800;2023-03-16T01:50:46;5.20;1.00
14614;DHT22;7393;51.446;6.800;2023-03-16T01:53:13;5.20;1.00
14614;DHT22;7393;51.446;6.800;2023-03-16T01:55:41;5.20;1.00
14614;DHT22;7393;51.446;6.800;2023-03-16T01:58:08;5.20;1.00
14614;DHT22;7393;51.446;6.800;2023-03-16T02:00:35;5.20;1.00
14614;DHT22;7393;51.446;6.800;2023-03-16T02:03:06;5.20;1.00
14614;DHT22;7393;51.446;6.800;2023-03-16T02:05:39;5.20;1.00
14614;DHT22;7393;51.446;6.800;2023-03-16T02:08:09;5.20;1.00
14614;DHT22;7393;51.446;6.800;2023-03-16T02:10:37;5.20;1.00
14614;DHT22;7393;51.446;6.800;2023-03-16T02:13:04;5.20;1.00
14614;DHT22;7393;51.446;6.800;2023-03-16T02:15:30;5.30;1.00
14614;DHT22;7393;51.446;6.800;2023-03-16T02:18:00;5.20;1.00
14614;DHT22;7393;51.446;6.800;2023-03-16T02:20:35;5.30;1.00
14614;DHT22;7393;51.446;6.800;2023-03-16T02:23:04;5.20;1.00
14614;DHT22;7393;51.446;6.800;2023-03-16T02:25:38;5.30;1.00
14614;DHT22;7393;51.446;6.800;2023-03-16T02:28:13;5.30;1.00
14614;DHT22;7393;51.446;6.800;2023-03-16T02:30:43;5.30;1.00
14614;DHT22;7393;51.446;6.800;2023-03-16T02:33:10;5.30;1.00
14614;DHT22;7393;51.446;6.800;2023-03-16T02:35:37;5.30;1.00
14614;DHT22;7393;51.446;6.800;2023-03-16T02:38:03;5.20;1.00
14614;DHT22;7393;51.446;6.800;2023-03-16T02:40:32;5.20;1.00
14614;DHT22;7393;51.446;6.800;2023-03-16T02:43:00;5.20;1.00
14614;DHT22;7393;51.446;6.800;2023-03-16T02:45:31;5.30;1.00
14614;DHT22;7393;51.446;6.800;2023-03-16T02:48:04;5.20;1.00
14614;DHT22;7393;51.446;6.800;2023-03-16T02:50:31;5.20;1.00
14614;DHT22;7393;51.446;6.800;2023-03-16T02:52:57;5.20;1.00
14614;DHT22;7393;51.446;6.800;2023-03-16T02:55:24;5.20;1.00
14614;DHT22;7393;51.446;6.800;2023-03-16T02:57:51;5.20;1.00
14614;DHT22;7393;51.446;6.800;2023-03-16T03:00:18;5.20;1.00
14614;DHT22;7393;51.446;6.800;2023-03-16T03:02:46;5.20;1.00
14614;DHT22;7393;51.446;6.800;2023-03-16T03:05:14;5.20;1.00
14614;DHT22;7393;51.446;6.800;2023-03-16T03:07:41;5.20;1.00
14614;DHT22;7393;51.446;6.800;2023-03-16T03:10:09;5.20;1.00
14614;DHT22;7393;51.446;6.800;2023-03-16T03:12:36;5.20;1.00
14614;DHT22;7393;51.446;6.800;2023-03-16T03:15:03;5.20;1.00
14614;DHT22;7393;51.446;6.800;2023-03-16T03:17:31;5.10;1.00
14614;DHT22;7393;51.446;6.800;2023-03-16T03:19:58;5.20;1.00
14614;DHT22;7393;51.446;6.800;2023-03-16T03:22:28;5.10;1.00
14614;DHT22;7393;51.446;6.800;2023-03-16T03:24:54;5.20;1.00
14614;DHT22;7393;51.446;6.800;2023-03-16T03:27:22;5.20;1.00
14614;DHT22;7393;51.446;6.800;2023-03-16T03:29:49;5.20;1.00
14614;DHT22;7393;51.446;6.800;2023-03-16T03:32:16;5.20;1.00
14614;DHT22;7393;51.446;6.800;2023-03-16T03:34:43;5.20;1.00
14614;DHT22;7393;51.446;6.800;2023-03-16T03:37:10;5.10;1.00
14614;DHT22;7393;51.446;6.800;2023-03-16T03:39:38;5.20;1.00
14614;DHT22;7393;51.446;6.800;2023-03-16T03:42:05;5.20;1.00
14614;DHT22;7393;51.446;6.800;2023-03-16T03:44:33;5.20;1.00
14614;DHT22;7393;51.446;6.800;2023-03-16T03:47:00;5.20;1.00
14614;DHT22;7393;51.446;6.800;2023-03-16T03:49:27;5.20;1.00
14614;DHT22;7393;51.446;6.800;2023-03-16T03:51:53;5.20;1.00
14614;DHT22;7393;51.446;6.800;2023-03-16T03:54:23;5.20;1.00
14614;DHT22;7393;51.446;6.800;2023-03-16T03:56:52;5.20;1.00
14614;DHT22;7393;51.446;6.800;2023-03-16T03:59:18;5.20;1.00
14614;DHT22;7393;51.446;6.800;2023-03-16T04:01:46;5.20;1.00
14614;DHT22;7393;51.446;6.800;2023-03-16T04:04:14;5.20;1.00
14614;DHT22;7393;51.446;6.800;2023-03-16T04:06:41;5.20;1.00
14614;DHT22;7393;51.446;6.800;2023-03-16T04:09:08;5.20;1.00
14614;DHT22;7393;51.446;6.800;2023-03-16T04:11:34;5.20;1.00
14614;DHT22;7393;51.446;6.800;2023-03-16T04:14:03;5.20;1.00
14614;DHT22;7393;51.446;6.800;2023-03-16T04:16:30;5.20;1.00
14614;DHT22;7393;51.446;6.800;2023-03-16T04:18:58;5.20;1.00
14614;DHT22;7393;51.446;6.800;2023-03-16T04:21:26;5.20;1.00
14614;DHT22;7393;51.446;6.800;2023-03-16T04:23:53;5.20;1.00
14614;DHT22;7393;51.446;6.800;2023-03-16T04:26:20;5.20;1.00
14614;DHT22;7393;51.446;6.800;2023-03-16T04:28:46;5.10;1.00
14614;DHT22;7393;51.446;6.800;2023-03-16T04:31:14;5.10;1.00
14614;DHT22;7393;51.446;6.800;2023-03-16T04:33:41;5.20;1.00
14614;DHT22;7393;51.446;6.800;2023-03-16T04:36:08;5.20;1.00
14614;DHT22;7393;51.446;6.800;2023-03-16T04:38:36;5.10;1.00
14614;DHT22;7393;51.446;6.800;2023-03-16T04:41:04;5.10;1.00
14614;DHT22;7393;51.446;6.800;2023-03-16T04:43:32;5.10;1.00
14614;DHT22;7393;51.446;6.800;2023-03-16T04:45:59;5.10;1.00
14614;DHT22;7393;51.446;6.800;2023-03-16T04:48:28;5.10;1.00
14614;DHT22;7393;51.446;6.800;2023-03-16T04:50:56;5.20;1.00
14614;DHT22;7393;51.446;6.800;2023-03-16T04:53:23;5.10;1.00
14614;DHT22;7393;51.446;6.800;2023-03-16T04:55:50;5.10;1.00
14614;DHT22;7393;51.446;6.800;2023-03-16T04:58:16;5.10;1.00
14614;DHT22;7393;51.446;6.800;2023-03-16T05:00:43;5.10;1.00
14614;DHT22;7393;51.446;6.800;2023-03-16T05:03:10;5.10;1.00
14614;DHT22;7393;51.446;6.800;2023-03-16T05:05:38;5.10;1.00
14614;DHT22;7393;51.446;6.800;2023-03-16T05:08:05;5.20;1.00
14614;DHT22;7393;51.446;6.800;2023-03-16T05:10:32;5.10;1.00
14614;DHT22;7393;51.446;6.800;2023-03-16T05:13:00;5.20;1.00
14614;DHT22;7393;51.446;6.800;2023-03-16T05:15:27;5.20;1.00
14614;DHT22;7393;51.446;6.800;2023-03-16T05:17:54;5.10;1.00
14614;DHT22;7393;51.446;6.800;2023-03-16T05:20:21;5.10;1.00
14614;DHT22;7393;51.446;6.800;2023-03-16T05:22:50;5.20;1.00
14614;DHT22;7393;51.446;6.800;2023-03-16T05:25:18;5.20;1.00
14614;DHT22;7393;51.446;6.800;2023-03-16T05:27:46;5.10;1.00
14614;DHT22;7393;51.446;6.800;2023-03-16T05:30:15;5.10;1.00
14614;DHT22;7393;51.446;6.800;2023-03-16T05:32:42;5.10;1.00
14614;DHT22;7393;51.446;6.800;2023-03-16T05:35:10;5.10;1.00
14614;DHT22;7393;51.446;6.800;2023-03-16T05:37:38;5.10;1.00
14614;DHT22;7393;51.446;6.800;2023-03-16T05:40:08;5.10;1.00
14614;DHT22;7393;51.446;6.800;2023-03-16T05:42:42;5.10;1.00
14614;DHT22;7393;51.446;6.800;2023-03-16T05:45:10;5.10;1.00
14614;DHT22;7393;51.446;6.800;2023-03-16T05:47:37;5.20;1.00
14614;DHT22;7393;51.446;6.800;2023-03-16T05:50:04;5.20;1.00
14614;DHT22;7393;51.446;6.800;2023-03-16T05:52:31;5.10;1.00
14614;DHT22;7393;51.446;6.800;2023-03-16T05:54:58;5.10;1.00
14614;DHT22;7393;51.446;6.800;2023-03-16T05:57:26;5.10;1.00
14614;DHT22;7393;51.446;6.800;2023-03-16T05:59:53;5.10;1.00
14614;DHT22;7393;51.446;6.800;2023-03-16T06:02:20;5.10;1.00
14614;DHT22;7393;51.446;6.800;2023-03-16T06:04:47;5.20;1.00
14614;DHT22;7393;51.446;6.800;2023-03-16T06:07:14;5.20;1.00
14614;DHT22;7393;51.446;6.800;2023-03-16T06:09:40;5.20;1.00
14614;DHT22;7393;51.446;6.800;2023-03-16T06:12:08;5.20;1.00
14614;DHT22;7393;51.446;6.800;2023-03-16T06:14:36;5.20;1.00
14614;DHT22;7393;51.446;6.800;2023-03-16T06:17:03;5.20;1.00
14614;DHT22;7393;51.446;6.800;2023-03-16T06:19:29;5.20;1.00
14614;DHT22;7393;51.446;6.800;2023-03-16T06:21:56;5.10;1.00
14614;DHT22;7393;51.446;6.800;2023-03-16T06:24:23;5.20;1.00
14614;DHT22;7393;51.446;6.800;2023-03-16T06:26:50;5.20;1.00
14614;DHT22;7393;51.446;6.800;2023-03-16T06:29:17;5.20;1.00
14614;DHT22;7393;51.446;6.800;2023-03-16T06:31:45;5.20;1.00
14614;DHT22;7393;51.446;6.800;2023-03-16T06:34:12;5.30;1.00
14614;DHT22;7393;51.446;6.800;2023-03-16T06:36:39;5.30;1.00
14614;DHT22;7393;51.446;6.800;2023-03-16T06:39:05;5.30;1.00
14614;DHT22;7393;51.446;6.800;2023-03-16T06:41:32;5.30;1.00
14614;DHT22;7393;51.446;6.800;2023-03-16T06:44:00;5.30;1.00
14614;DHT22;7393;51.446;6.800;2023-03-16T06:46:27;5.30;1.00
14614;DHT22;7393;51.446;6.800;2023-03-16T06:48:55;5.40;1.00
14614;DHT22;7393;51.446;6.800;2023-03-16T06:51:22;5.30;1.00
14614;DHT22;7393;51.446;6.800;2023-03-16T06:53:48;5.40;1.00
14614;DHT22;7393;51.446;6.800;2023-03-16T06:56:15;5.40;1.00
14614;DHT22;7393;51.446;6.800;2023-03-16T06:58:42;5.40;1.00
14614;DHT22;7393;51.446;6.800;2023-03-16T07:01:09;5.40;1.00
14614;DHT22;7393;51.446;6.800;2023-03-16T07:03:37;5.50;1.00
14614;DHT22;7393;51.446;6.800;2023-03-16T07:06:05;5.50;1.00
14614;DHT22;7393;51.446;6.800;2023-03-16T07:08:33;5.60;1.00
14614;DHT22;7393;51.446;6.800;2023-03-16T07:11:00;5.60;1.00
14614;DHT22;7393;51.446;6.800;2023-03-16T07:13:26;5.70;1.00
14614;DHT22;7393;51.446;6.800;2023-03-16T07:15:53;5.70;1.00
14614;DHT22;7393;51.446;6.800;2023-03-16T07:18:20;5.70;1.00
14614;DHT22;7393;51.446;6.800;2023-03-16T07:20:47;5.80;1.00
14614;DHT22;7393;51.446;6.800;2023-03-16T07:23:15;5.80;1.00
14614;DHT22;7393;51.446;6.800;2023-03-16T07:25:42;5.90;1.00
14614;DHT22;7393;51.446;6.800;2023-03-16T07:28:09;5.90;1.00
14614;DHT22;7393;51.446;6.800;2023-03-16T07:30:36;5.90;1.00
14614;DHT22;7393;51.446;6.800;2023-03-16T07:33:03;6.00;1.00
14614;DHT22;7393;51.446;6.800;2023-03-16T07:35:30;6.00;1.00
14614;DHT22;7393;51.446;6.800;2023-03-16T07:37:57;6.00;1.00
14614;DHT22;7393;51.446;6.800;2023-03-16T07:40:25;6.10;1.00
14614;DHT22;7393;51.446;6.800;2023-03-16T07:42:51;6.00;1.00
14614;DHT22;7393;51.446;6.800;2023-03-16T07:45:18;6.10;1.00
14614;DHT22;7393;51.446;6.800;2023-03-16T07:47:46;6.10;1.00
14614;DHT22;7393;51.446;6.800;2023-03-16T07:50:13;6.20;1.00
14614;DHT22;7393;51.446;6.800;2023-03-16T07:52:41;6.20;1.00
14614;DHT22;7393;51.446;6.800;2023-03-16T07:55:09;6.20;1.00
14614;DHT22;7393;51.446;6.800;2023-03-16T07:57:37;6.20;1.00
14614;DHT22;7393;51.446;6.800;2023-03-16T08:00:07;6.20;1.00
14614;DHT22;7393;51.446;6.800;2023-03-16T08:02:34;6.30;1.00
14614;DHT22;7393;51.446;6.800;2023-03-16T08:05:01;6.30;1.00
14614;DHT22;7393;51.446;6.800;2023-03-16T08:07:28;6.20;1.00
14614;DHT22;7393;51.446;6.800;2023-03-16T08:09:56;6.20;1.00
14614;DHT22;7393;51.446;6.800;2023-03-16T08:12:23;6.20;1.00
14614;DHT22;7393;51.446;6.800;2023-03-16T08:14:51;6.20;1.00
14614;DHT22;7393;51.446;6.800;2023-03-16T08:17:19;6.20;1.00
14614;DHT22;7393;51.446;6.800;2023-03-16T08:19:46;6.20;1.00
14614;DHT22;7393;51.446;6.800;2023-03-16T08:22:12;6.20;1.00
14614;DHT22;7393;51.446;6.800;2023-03-16T08:24:39;6.30;1.00
14614;DHT22;7393;51.446;6.800;2023-03-16T08:27:06;6.30;1.00
14614;DHT22;7393;51.446;6.800;2023-03-16T08:29:33;6.20;1.00
14614;DHT22;7393;51.446;6.800;2023-03-16T08:32:01;6.30;1.00
14614;DHT22;7393;51.446;6.800;2023-03-16T08:34:28;6.30;1.00
14614;DHT22;7393;51.446;6.800;2023-03-16T08:36:56;6.30;1.00
14614;DHT22;7393;51.446;6.800;2023-03-16T08:39:23;6.30;1.00
14614;DHT22;7393;51.446;6.800;2023-03-16T08:41:50;6.30;1.00
14614;DHT22;7393;51.446;6.800;2023-03-16T08:44:18;6.30;1.00
14614;DHT22;7393;51.446;6.800;2023-03-16T08:46:46;6.40;1.00
14614;DHT22;7393;51.446;6.800;2023-03-16T08:49:14;6.40;1.00
14614;DHT22;7393;51.446;6.800;2023-03-16T08:51:41;6.40;1.00
14614;DHT22;7393;51.446;6.800;2023-03-16T08:54:08;6.40;1.00
14614;DHT22;7393;51.446;6.800;2023-03-16T08:56:35;6.40;1.00
14614;DHT22;7393;51.446;6.800;2023-03-16T08:59:02;6.40;1.00
14614;DHT22;7393;51.446;6.800;2023-03-16T09:01:28;6.40;1.00
14614;DHT22;7393;51.446;6.800;2023-03-16T09:03:56;6.50;1.00
14614;DHT22;7393;51.446;6.800;2023-03-16T09:06:24;6.50;1.00
14614;DHT22;7393;51.446;6.800;2023-03-16T09:08:51;6.60;1.00
14614;DHT22;7393;51.446;6.800;2023-03-16T09:11:18;6.60;1.00
14614;DHT22;7393;51.446;6.800;2023-03-16T09:13:46;6.60;1.00
14614;DHT22;7393;51.446;6.800;2023-03-16T09:16:14;6.70;1.00
14614;DHT22;7393;51.446;6.800;2023-03-16T09:18:41;6.70;1.00
14614;DHT22;7393;51.446;6.800;2023-03-16T09:21:09;6.70;1.00
14614;DHT22;7393;51.446;6.800;2023-03-16T09:23:40;6.80;1.00
14614;DHT22;7393;51.446;6.800;2023-03-16T09:26:07;6.80;1.00
14614;DHT22;7393;51.446;6.800;2023-03-16T09:28:35;6.80;1.00
14614;DHT22;7393;51.446;6.800;2023-03-16T09:31:03;6.90;1.00
14614;DHT22;7393;51.446;6.800;2023-03-16T09:33:30;6.90;1.00
14614;DHT22;7393;51.446;6.800;2023-03-16T09:35:58;6.90;1.00
14614;DHT22;7393;51.446;6.800;2023-03-16T09:38:26;7.00;1.00
14614;DHT22;7393;51.446;6.800;2023-03-16T09:40:57;7.00;1.00
14614;DHT22;7393;51.446;6.800;2023-03-16T09:43:46;7.00;1.00
14614;DHT22;7393;51.446;6.800;2023-03-16T09:46:23;7.10;1.00
14614;DHT22;7393;51.446;6.800;2023-03-16T09:48:53;7.20;1.00
14614;DHT22;7393;51.446;6.800;2023-03-16T09:51:27;7.20;1.00
14614;DHT22;7393;51.446;6.800;2023-03-16T09:53:58;7.20;1.00
14614;DHT22;7393;51.446;6.800;2023-03-16T09:56:31;7.30;1.00
14614;DHT22;7393;51.446;6.800;2023-03-16T09:58:59;7.40;1.00
14614;DHT22;7393;51.446;6.800;2023-03-16T10:01:36;7.40;1.00
14614;DHT22;7393;51.446;6.800;2023-03-16T10:04:13;7.50;1.00
14614;DHT22;7393;51.446;6.800;2023-03-16T10:06:46;7.60;1.00
14614;DHT22;7393;51.446;6.800;2023-03-16T10:09:23;7.60;1.00
14614;DHT22;7393;51.446;6.800;2023-03-16T10:11:55;7.70;1.00
14614;DHT22;7393;51.446;6.800;2023-03-16T10:14:29;7.70;1.00
14614;DHT22;7393;51.446;6.800;2023-03-16T10:17:00;7.70;1.00
14614;DHT22;7393;51.446;6.800;2023-03-16T10:19:35;7.80;1.00
14614;DHT22;7393;51.446;6.800;2023-03-16T10:22:14;7.80;1.00
14614;DHT22;7393;51.446;6.800;2023-03-16T10:24:51;7.80;1.00
14614;DHT22;7393;51.446;6.800;2023-03-16T10:27:27;7.90;1.00
14614;DHT22;7393;51.446;6.800;2023-03-16T10:29:54;8.00;1.00
14614;DHT22;7393;51.446;6.800;2023-03-16T10:32:21;8.00;1.00
14614;DHT22;7393;51.446;6.800;2023-03-16T10:34:56;8.00;1.00
14614;DHT22;7393;51.446;6.800;2023-03-16T10:37:25;8.10;1.00
14614;DHT22;7393;51.446;6.800;2023-03-16T10:39:55;8.10;1.00
14614;DHT22;7393;51.446;6.800;2023-03-16T10:42:26;8.10;1.00
14614;DHT22;7393;51.446;6.800;2023-03-16T10:44:56;8.20;1.00
14614;DHT22;7393;51.446;6.800;2023-03-16T10:47:28;8.20;1.00
14614;DHT22;7393;51.446;6.800;2023-03-16T10:49:55;8.30;1.00
14614;DHT22;7393;51.446;6.800;2023-03-16T10:52:28;8.40;1.00
14614;DHT22;7393;51.446;6.800;2023-03-16T10:54:59;8.40;1.00
14614;DHT22;7393;51.446;6.800;2023-03-16T10:57:31;8.50;1.00
14614;DHT22;7393;51.446;6.800;2023-03-16T11:00:02;8.60;1.00
14614;DHT22;7393;51.446;6.800;2023-03-16T11:02:41;8.70;1.00
14614;DHT22;7393;51.446;6.800;2023-03-16T11:05:12;8.80;1.00
14614;DHT22;7393;51.446;6.800;2023-03-16T11:07:47;8.90;1.00
14614;DHT22;7393;51.446;6.800;2023-03-16T11:10:24;8.90;1.00
14614;DHT22;7393;51.446;6.800;2023-03-16T11:12:53;9.10;1.00
14614;DHT22;7393;51.446;6.800;2023-03-16T11:15:20;9.20;1.00
14614;DHT22;7393;51.446;6.800;2023-03-16T11:17:49;9.30;1.00
14614;DHT22;7393;51.446;6.800;2023-03-16T11:20:22;9.50;1.00
14614;DHT22;7393;51.446;6.800;2023-03-16T11:22:49;9.70;1.00
14614;DHT22;7393;51.446;6.800;2023-03-16T11:25:20;9.80;1.00
14614;DHT22;7393;51.446;6.800;2023-03-16T11:27:54;9.90;1.00
14614;DHT22;7393;51.446;6.800;2023-03-16T11:30:26;10.00;1.00
14614;DHT22;7393;51.446;6.800;2023-03-16T11:32:55;10.10;1.00
14614;DHT22;7393;51.446;6.800;2023-03-16T11:35:29;10.20;1.00
14614;DHT22;7393;51.446;6.800;2023-03-16T11:38:12;10.30;1.00
14614;DHT22;7393;51.446;6.800;2023-03-16T11:40:46;10.50;1.00
14614;DHT22;7393;51.446;6.800;2023-03-16T11:43:42;10.60;1.00
14614;DHT22;7393;51.446;6.800;2023-03-16T11:46:14;10.70;1.00
14614;DHT22;7393;51.446;6.800;2023-03-16T11:48:49;10.80;1.00
14614;DHT22;7393;51.446;6.800;2023-03-16T11:51:31;10.90;1.00
14614;DHT22;7393;51.446;6.800;2023-03-16T11:54:10;11.00;1.00
14614;DHT22;7393;51.446;6.800;2023-03-16T11:56:45;11.10;1.00
14614;DHT22;7393;51.446;6.800;2023-03-16T11:59:30;11.30;1.00
14614;DHT22;7393;51.446;6.800;2023-03-16T12:02:21;11.30;1.00
14614;DHT22;7393;51.446;6.800;2023-03-16T12:05:04;11.40;1.00
14614;DHT22;7393;51.446;6.800;2023-03-16T12:07:44;11.50;1.00
14614;DHT22;7393;51.446;6.800;2023-03-16T12:10:22;11.50;1.00
14614;DHT22;7393;51.446;6.800;2023-03-16T12:13:01;11.50;1.00
14614;DHT22;7393;51.446;6.800;2023-03-16T12:15:34;11.50;1.00
14614;DHT22;7393;51.446;6.800;2023-03-16T12:18:10;11.70;1.00
14614;DHT22;7393;51.446;6.800;2023-03-16T12:20:44;11.70;1.00
14614;DHT22;7393;51.446;6.800;2023-03-16T12:23:15;11.80;1.00
14614;DHT22;7393;51.446;6.800;2023-03-16T12:25:47;11.70;1.00
14614;DHT22;7393;51.446;6.800;2023-03-16T12:28:20;11.60;1.00
14614;DHT22;7393;51.446;6.800;2023-03-16T12:30:55;11.60;1.00
14614;DHT22;7393;51.446;6.800;2023-03-16T12:33:34;11.50;1.00
14614;DHT22;7393;51.446;6.800;2023-03-16T12:36:34;11.40;1.00
14614;DHT22;7393;51.446;6.800;2023-03-16T12:39:06;11.20;1.00
14614;DHT22;7393;51.446;6.800;2023-03-16T12:41:40;11.30;1.00
14614;DHT22;7393;51.446;6.800;2023-03-16T12:44:14;11.30;1.00
14614;DHT22;7393;51.446;6.800;2023-03-16T12:46:51;11.40;1.00
14614;DHT22;7393;51.446;6.800;2023-03-16T12:49:22;11.30;1.00
14614;DHT22;7393;51.446;6.800;2023-03-16T12:51:58;11.30;1.00
14614;DHT22;7393;51.446;6.800;2023-03-16T12:54:26;11.30;1.00
14614;DHT22;7393;51.446;6.800;2023-03-16T12:56:59;11.30;1.00
14614;DHT22;7393;51.446;6.800;2023-03-16T12:59:35;11.30;1.00
14614;DHT22;7393;51.446;6.800;2023-03-16T13:02:09;11.30;1.00
14614;DHT22;7393;51.446;6.800;2023-03-16T13:04:39;11.30;1.00
14614;DHT22;7393;51.446;6.800;2023-03-16T13:07:13;11.30;1.00
14614;DHT22;7393;51.446;6.800;2023-03-16T13:09:44;11.30;1.00
14614;DHT22;7393;51.446;6.800;2023-03-16T13:12:21;11.40;1.00
14614;DHT22;7393;51.446;6.800;2023-03-16T13:14:49;11.40;1.00
14614;DHT22;7393;51.446;6.800;2023-03-16T13:17:32;11.40;1.00
14614;DHT22;7393;51.446;6.800;2023-03-16T13:20:06;11.50;1.00
14614;DHT22;7393;51.446;6.800;2023-03-16T13:22:49;11.60;1.00
14614;DHT22;7393;51.446;6.800;2023-03-16T13:25:21;11.70;1.00
14614;DHT22;7393;51.446;6.800;2023-03-16T13:27:53;11.80;1.00
14614;DHT22;7393;51.446;6.800;2023-03-16T13:30:22;12.00;1.00
14614;DHT22;7393;51.446;6.800;2023-03-16T13:32:54;12.20;1.00
14614;DHT22;7393;51.446;6.800;2023-03-16T13:35:25;12.20;1.00
14614;DHT22;7393;51.446;6.800;2023-03-16T13:37:53;12.20;1.00
14614;DHT22;7393;51.446;6.800;2023-03-16T13:40:22;12.30;1.00
14614;DHT22;7393;51.446;6.800;2023-03-16T13:42:50;12.40;1.00
14614;DHT22;7393;51.446;6.800;2023-03-16T13:45:20;12.50;1.00
14614;DHT22;7393;51.446;6.800;2023-03-16T13:47:49;12.60;1.00
14614;DHT22;7393;51.446;6.800;2023-03-16T13:50:17;12.60;1.00
14614;DHT22;7393;51.446;6.800;2023-03-16T13:52:52;12.60;1.00
14614;DHT22;7393;51.446;6.800;2023-03-16T13:55:26;12.70;1.00
14614;DHT22;7393;51.446;6.800;2023-03-16T13:57:55;12.90;1.00
14614;DHT22;7393;51.446;6.800;2023-03-16T14:00:24;13.00;1.00
14614;DHT22;7393;51.446;6.800;2023-03-16T14:02:54;13.00;1.00
14614;DHT22;7393;51.446;6.800;2023-03-16T14:05:28;13.10;1.00
14614;DHT22;7393;51.446;6.800;2023-03-16T14:07:56;13.10;1.00
14614;DHT22;7393;51.446;6.800;2023-03-16T14:10:28;13.20;1.00
14614;DHT22;7393;51.446;6.800;2023-03-16T14:13:06;13.20;1.00
14614;DHT22;7393;51.446;6.800;2023-03-16T14:15:35;13.30;1.00
14614;DHT22;7393;51.446;6.800;2023-03-16T14:18:12;13.40;1.00
14614;DHT22;7393;51.446;6.800;2023-03-16T14:20:42;13.40;1.00
14614;DHT22;7393;51.446;6.800;2023-03-16T14:23:20;13.40;1.00
14614;DHT22;7393;51.446;6.800;2023-03-16T14:25:48;13.50;1.00
14614;DHT22;7393;51.446;6.800;2023-03-16T14:28:16;13.60;1.00
14614;DHT22;7393;51.446;6.800;2023-03-16T14:30:51;13.60;1.00
14614;DHT22;7393;51.446;6.800;2023-03-16T14:33:25;13.70;1.00
14614;DHT22;7393;51.446;6.800;2023-03-16T14:35:57;13.80;1.00
14614;DHT22;7393;51.446;6.800;2023-03-16T14:38:29;13.90;1.00
14614;DHT22;7393;51.446;6.800;2023-03-16T14:41:01;14.00;1.00
14614;DHT22;7393;51.446;6.800;2023-03-16T14:43:30;14.00;1.00
14614;DHT22;7393;51.446;6.800;2023-03-16T14:45:58;13.90;1.00
14614;DHT22;7393;51.446;6.800;2023-03-16T14:48:26;13.80;1.00
14614;DHT22;7393;51.446;6.800;2023-03-16T14:50:58;13.70;1.00
14614;DHT22;7393;51.446;6.800;2023-03-16T14:53:25;13.60;1.00
14614;DHT22;7393;51.446;6.800;2023-03-16T14:55:53;13.60;1.00
14614;DHT22;7393;51.446;6.800;2023-03-16T14:58:20;13.70;1.00
14614;DHT22;7393;51.446;6.800;2023-03-16T15:00:47;13.60;1.00
14614;DHT22;7393;51.446;6.800;2023-03-16T15:03:19;13.50;1.00
14614;DHT22;7393;51.446;6.800;2023-03-16T15:05:49;13.50;1.00
14614;DHT22;7393;51.446;6.800;2023-03-16T15:08:22;13.40;1.00
14614;DHT22;7393;51.446;6.800;2023-03-16T15:10:50;13.40;1.00
14614;DHT22;7393;51.446;6.800;2023-03-16T15:13:19;13.40;1.00
14614;DHT22;7393;51.446;6.800;2023-03-16T15:15:59;13.30;1.00
14614;DHT22;7393;51.446;6.800;2023-03-16T15:18:26;13.30;1.00
14614;DHT22;7393;51.446;6.800;2023-03-16T15:20:53;13.30;1.00
14614;DHT22;7393;51.446;6.800;2023-03-16T15:23:22;13.20;1.00
14614;DHT22;7393;51.446;6.800;2023-03-16T15:25:49;13.20;1.00
14614;DHT22;7393;51.446;6.800;2023-03-16T15:28:19;13.20;1.00
14614;DHT22;7393;51.446;6.800;2023-03-16T15:30:47;13.20;1.00
14614;DHT22;7393;51.446;6.800;2023-03-16T15:33:15;13.20;1.00
14614;DHT22;7393;51.446;6.800;2023-03-16T15:35:42;13.30;1.00
14614;DHT22;7393;51.446;6.800;2023-03-16T15:38:15;13.30;1.00
14614;DHT22;7393;51.446;6.800;2023-03-16T15:40:45;13.20;1.00
14614;DHT22;7393;51.446;6.800;2023-03-16T15:43:14;13.10;1.00
14614;DHT22;7393;51.446;6.800;2023-03-16T15:45:41;13.10;1.00
14614;DHT22;7393;51.446;6.800;2023-03-16T15:48:08;13.10;1.00
14614;DHT22;7393;51.446;6.800;2023-03-16T15:50:36;13.10;1.00
14614;DHT22;7393;51.446;6.800;2023-03-16T15:53:06;13.10;1.00
14614;DHT22;7393;51.446;6.800;2023-03-16T15:55:35;13.10;1.00
14614;DHT22;7393;51.446;6.800;2023-03-16T15:58:05;13.10;1.00
14614;DHT22;7393;51.446;6.800;2023-03-16T16:00:33;13.10;1.00
14614;DHT22;7393;51.446;6.800;2023-03-16T16:03:02;13.10;1.00
14614;DHT22;7393;51.446;6.800;2023-03-16T16:05:29;13.00;1.00
14614;DHT22;7393;51.446;6.800;2023-03-16T16:07:57;13.00;1.00
14614;DHT22;7393;51.446;6.800;2023-03-16T16:10:24;12.90;1.00
14614;DHT22;7393;51.446;6.800;2023-03-16T16:12:53;12.90;1.00
14614;DHT22;7393;51.446;6.800;2023-03-16T16:15:24;12.80;1.00
14614;DHT22;7393;51.446;6.800;2023-03-16T16:17:51;12.80;1.00
14614;DHT22;7393;51.446;6.800;2023-03-16T16:20:22;12.70;1.00
14614;DHT22;7393;51.446;6.800;2023-03-16T16:22:51;12.70;1.00
14614;DHT22;7393;51.446;6.800;2023-03-16T16:25:19;12.70;1.00
14614;DHT22;7393;51.446;6.800;2023-03-16T16:27:47;12.70;1.00
14614;DHT22;7393;51.446;6.800;2023-03-16T16:30:20;12.70;1.00